Time;durP1;ratioP1;P1;durP2;ratioP2;P2;SDS_P1;SDS_P2;PMS_P1;PMS_P2;Temp;Humidity;BMP_temperature;BMP_pressure;BME280_temperature;BME280_humidity;BME280_pressure;Samples;Min_cycle;Max_cycle;Signal;HPM_P1;HPM_P2
2024/01/20 00:02:00;;;;;;;18.15;13.75;;;;;;;-1.67;77.43;99109.31;5012800;28;20205;-74
2024/01/20 00:04:26;;;;;;;18.75;13.20;;;;;;;-1.75;77.30;99112.44;5011231;28;20221;-74
2024/01/20 00:06:53;;;;;;;16.83;14.00;;;;;;;-1.54;76.87;99107.53;5010839;28;20210;-74
2024/01/20 00:09:20;;;;;;;18.50;13.27;;;;;;;-1.71;78.31;99110.44;5010706;28;20202;-73
2024/01/20 00:11:46;;;;;;;20.27;14.75;;;;;;;-1.63;77.57;99107.31;5017340;28;20206;-74
2024/01/20 00:14:13;;;;;;;18.83;13.98;;;;;;;-1.49;77.40;99102.78;5019689;28;20670;-73
2024/01/20 00:16:41;;;;;;;18.05;13.68;;;;;;;-1.65;77.27;99111.88;5011544;28;20202;-74
2024/01/20 00:19:07;;;;;;;18.20;14.57;;;;;;;-1.84;77.93;99107.72;5013278;28;20284;-74
2024/01/20 00:21:34;;;;;;;16.88;14.05;;;;;;;-2.03;78.18;99115.16;5003738;28;20203;-74
2024/01/20 00:24:01;;;;;;;18.60;14.18;;;;;;;-2.10;78.21;99112.03;5002200;28;20203;-74
2024/01/20 00:26:27;;;;;;;16.70;13.25;;;;;;;-2.04;77.82;99111.66;5016721;28;20199;-74
2024/01/20 00:28:54;;;;;;;18.92;13.48;;;;;;;-2.15;78.57;99098.22;5011854;28;20245;-74
2024/01/20 00:31:20;;;;;;;16.25;13.80;;;;;;;-2.10;78.54;99098.78;5012012;28;20194;-73
2024/01/20 00:33:48;;;;;;;15.55;13.30;;;;;;;-2.12;78.61;99108.63;5011510;28;20213;-74
2024/01/20 00:36:15;;;;;;;17.85;14.40;;;;;;;-1.99;78.06;99110.53;5010656;28;20210;-74
2024/01/20 00:38:42;;;;;;;20.42;16.33;;;;;;;-2.27;79.17;99104.28;5011040;28;20210;-74
2024/01/20 00:41:10;;;;;;;18.42;14.93;;;;;;;-2.29;79.70;99102.69;5007780;28;20198;-73
2024/01/20 00:43:37;;;;;;;27.67;16.10;;;;;;;-2.25;79.69;99110.34;5010860;28;20207;-74
2024/01/20 00:46:03;;;;;;;24.95;16.85;;;;;;;-2.22;79.46;99096.03;5011181;28;20220;-75
2024/01/20 00:48:30;;;;;;;21.25;15.95;;;;;;;-1.98;79.07;99112.22;5013229;28;20197;-74
2024/01/20 00:50:58;;;;;;;19.02;15.88;;;;;;;-2.09;79.50;99110.25;5010901;28;20293;-74
2024/01/20 00:53:24;;;;;;;23.00;16.25;;;;;;;-2.00;79.31;99117.63;5012835;28;20202;-74
2024/01/20 00:55:51;;;;;;;21.67;15.30;;;;;;;-1.71;78.68;99118.41;5009094;28;20309;-73
2024/01/20 00:58:18;;;;;;;17.65;15.43;;;;;;;-1.89;78.69;99127.53;5008002;28;20202;-73
2024/01/20 01:00:44;;;;;;;18.92;15.77;;;;;;;-1.93;78.76;99128.66;5008852;28;20238;-74
2024/01/20 01:03:11;;;;;;;21.70;17.00;;;;;;;-2.11;79.55;99128.03;5010019;28;20199;-74
2024/01/20 01:05:38;;;;;;;18.25;14.90;;;;;;;-2.03;78.92;99129.28;5011500;28;20289;-73
2024/01/20 01:08:06;;;;;;;21.23;16.05;;;;;;;-2.08;78.93;99128.72;5010841;28;20213;-74
2024/01/20 01:10:32;;;;;;;22.77;16.55;;;;;;;-1.99;79.34;99121.97;5010539;28;20214;-74
2024/01/20 01:12:59;;;;;;;21.48;16.90;;;;;;;-2.21;79.68;99122.47;5017017;28;20253;-74
2024/01/20 01:15:25;;;;;;;23.30;16.92;;;;;;;-2.19;80.27;99123.22;5000946;28;20246;-74
2024/01/20 01:17:52;;;;;;;24.95;17.98;;;;;;;-2.09;79.27;99129.66;5005704;28;20277;-74
2024/01/20 01:20:19;;;;;;;24.05;16.15;;;;;;;-2.22;79.95;99128.69;5002223;28;20210;-74
2024/01/20 01:22:45;;;;;;;23.10;16.77;;;;;;;-2.30;80.42;99133.66;5010454;28;20277;-74
2024/01/20 01:25:13;;;;;;;23.60;15.57;;;;;;;-2.34;80.67;99139.22;5009228;28;20218;-74
2024/01/20 01:27:40;;;;;;;21.70;16.90;;;;;;;-2.26;80.37;99131.63;5008642;28;20206;-74
2024/01/20 01:30:08;;;;;;;18.67;14.82;;;;;;;-2.30;79.51;99138.94;5011906;28;20202;-74
2024/01/20 01:32:35;;;;;;;19.58;14.70;;;;;;;-2.52;79.72;99150.00;5016306;28;20207;-74
2024/01/20 01:35:01;;;;;;;22.45;14.80;;;;;;;-2.35;79.51;99158.72;5007317;28;20305;-74
2024/01/20 01:37:28;;;;;;;20.17;15.40;;;;;;;-2.16;79.38;99170.75;5008064;28;20249;-74
2024/01/20 01:39:54;;;;;;;19.23;15.20;;;;;;;-2.24;79.29;99165.06;5010199;28;20212;-74
2024/01/20 01:42:22;;;;;;;19.83;15.38;;;;;;;-2.28;80.02;99166.22;5008696;28;20206;-74
2024/01/20 01:44:49;;;;;;;22.70;16.98;;;;;;;-2.27;80.44;99162.59;5010943;28;20759;-74
2024/01/20 01:47:15;;;;;;;22.15;16.20;;;;;;;-2.36;79.43;99155.22;5011020;28;20718;-74
2024/01/20 01:49:42;;;;;;;22.10;15.75;;;;;;;-2.48;79.96;99148.88;5002089;28;20360;-74
2024/01/20 01:52:08;;;;;;;23.63;16.35;;;;;;;-2.57;80.52;99143.25;4999522;28;20615;-74
2024/01/20 01:54:35;;;;;;;22.42;17.20;;;;;;;-2.48;80.72;99150.66;5007923;28;20207;-74
2024/01/20 01:57:03;;;;;;;19.13;16.58;;;;;;;-2.60;81.26;99148.78;5010144;28;20202;-74
2024/01/20 01:59:32;;;;;;;20.95;17.05;;;;;;;-2.61;81.62;99158.53;5010927;28;20233;-73
2024/01/20 02:01:59;;;;;;;23.30;16.80;;;;;;;-2.73;81.42;99160.09;5010381;28;20203;-74
2024/01/20 02:04:25;;;;;;;20.67;15.30;;;;;;;-2.48;81.77;99159.47;5010340;28;20205;-74
2024/01/20 02:06:52;;;;;;;23.00;18.70;;;;;;;-2.43;81.31;99152.09;5007619;28;20199;-74
2024/01/20 02:09:19;;;;;;;20.92;16.85;;;;;;;-2.62;80.96;99154.16;5008992;28;20206;-74
2024/01/20 02:11:46;;;;;;;23.80;16.17;;;;;;;-2.83;81.64;99155.44;5009578;28;20220;-73
2024/01/20 02:14:13;;;;;;;23.13;17.83;;;;;;;-2.94;82.40;99150.78;5007834;28;20241;-73
2024/01/20 02:16:41;;;;;;;23.73;15.80;;;;;;;-2.88;82.66;99153.03;5009735;28;20222;-73
2024/01/20 02:19:07;;;;;;;23.90;17.45;;;;;;;-2.84;82.51;99146.63;5007317;28;20230;-74
2024/01/20 02:21:36;;;;;;;25.23;19.92;;;;;;;-2.85;82.16;99144.94;5008397;28;20345;-74
2024/01/20 02:24:05;;;;;;;25.60;19.30;;;;;;;-2.86;83.02;99143.22;5011213;28;20199;-73
2024/01/20 02:26:32;;;;;;;25.05;19.25;;;;;;;-2.74;82.83;99150.44;5008627;28;20531;-73
2024/01/20 02:28:59;;;;;;;23.00;19.67;;;;;;;-2.73;82.78;99148.66;5008457;28;20221;-73
2024/01/20 02:31:25;;;;;;;23.98;18.80;;;;;;;-2.72;82.62;99151.22;5017834;28;20661;-73
2024/01/20 02:33:52;;;;;;;24.30;19.17;;;;;;;-2.98;82.66;99124.56;5010375;28;20208;-73
2024/01/20 02:36:18;;;;;;;24.98;19.08;;;;;;;-2.92;nan;99158.66;4997674;28;20219;-73
2024/01/20 02:38:44;;;;;;;27.23;19.38;;;;;;;-2.93;83.63;99163.09;5007423;28;20199;-73
2024/01/20 02:41:12;;;;;;;27.23;21.42;;;;;;;-2.72;83.26;99174.19;5009416;28;20194;-73
2024/01/20 02:43:39;;;;;;;25.98;19.63;;;;;;;-2.63;83.59;99176.31;5010579;28;20205;-73
2024/01/20 02:46:05;;;;;;;27.50;21.13;;;;;;;-2.57;82.72;99170.63;5007789;28;20206;-73
2024/01/20 02:48:32;;;;;;;27.50;20.27;;;;;;;-2.53;82.74;99165.97;5010207;28;20217;-73
2024/01/20 02:50:59;;;;;;;29.60;20.92;;;;;;;-2.64;82.92;99173.75;5021778;28;20695;-73
2024/01/20 02:53:28;;;;;;;26.63;20.55;;;;;;;-2.61;83.21;99173.56;5009617;28;20198;-72
2024/01/20 02:55:54;;;;;;;27.13;20.13;;;;;;;-2.63;82.92;99175.44;5008342;28;20672;-73
2024/01/20 02:58:22;;;;;;;27.20;20.17;;;;;;;-2.64;83.03;99181.69;5009175;28;20213;-73
2024/01/20 03:00:49;;;;;;;30.60;22.08;;;;;;;-2.74;83.64;99182.22;5009603;28;20202;-73
2024/01/20 03:03:15;;;;;;;28.83;22.48;;;;;;;-2.58;83.18;99189.25;5008528;28;20301;-72
2024/01/20 03:05:42;;;;;;;24.13;19.40;;;;;;;-2.82;83.34;99200.38;5017834;28;20212;-73
2024/01/20 03:08:08;;;;;;;24.75;19.08;;;;;;;-2.98;83.51;99199.56;5004047;28;20660;-73
2024/01/20 03:10:35;;;;;;;27.83;19.00;;;;;;;-3.01;83.95;99190.94;5004352;28;20698;-73
2024/01/20 03:13:01;;;;;;;26.58;19.67;;;;;;;-3.00;84.00;99193.50;5007652;28;20207;-73
2024/01/20 03:15:29;;;;;;;25.38;19.52;;;;;;;-2.86;83.54;99190.88;5009206;28;20218;-73
2024/01/20 03:17:56;;;;;;;28.95;22.15;;;;;;;-2.79;83.58;99186.09;5003380;28;20637;-73
2024/01/20 03:20:22;;;;;;;26.50;18.90;;;;;;;-2.93;83.55;99197.50;5004723;28;20190;-74
2024/01/20 03:22:49;;;;;;;26.92;19.13;;;;;;;-2.92;83.03;99196.53;5007768;28;20199;-73
2024/01/20 03:25:16;;;;;;;25.15;18.95;;;;;;;-2.93;83.03;99202.81;5009035;28;20621;-73
2024/01/20 03:27:42;;;;;;;28.33;20.30;;;;;;;-2.92;83.04;99196.53;5008447;28;20651;-72
2024/01/20 03:30:10;;;;;;;25.60;19.35;;;;;;;-2.99;83.05;99195.22;5009275;28;20216;-73
2024/01/20 03:32:38;;;;;;;27.30;19.33;;;;;;;-2.98;83.42;99193.41;5006549;28;20209;-73
2024/01/20 03:35:05;;;;;;;27.35;18.27;;;;;;;-2.87;83.04;99199.78;5007756;28;20688;-73
2024/01/20 03:37:32;;;;;;;25.55;18.60;;;;;;;-2.90;83.06;99193.81;5000109;28;20222;-73
2024/01/20 03:39:58;;;;;;;27.38;19.20;;;;;;;-2.80;82.70;99195.84;4984189;28;20562;-72
2024/01/20 03:42:25;;;;;;;27.20;19.95;;;;;;;-2.93;82.76;99191.34;4998953;28;20206;-73
2024/01/20 03:44:52;;;;;;;24.88;17.90;;;;;;;-3.04;82.95;99186.69;5007820;28;20751;-73
2024/01/20 03:47:18;;;;;;;26.80;19.60;;;;;;;-3.15;83.49;99197.03;5001212;28;20199;-73
2024/01/20 03:49:46;;;;;;;28.15;19.73;;;;;;;-2.92;83.17;99193.88;5009026;28;20293;-73
2024/01/20 03:52:12;;;;;;;27.98;20.27;;;;;;;-2.84;82.99;99196.94;5010173;28;20202;-73
2024/01/20 03:54:38;;;;;;;29.67;22.30;;;;;;;-2.86;82.35;99193.53;5009128;28;20302;-73
2024/01/20 03:57:05;;;;;;;27.47;19.50;;;;;;;-2.94;82.75;99203.75;5004509;28;20585;-73
2024/01/20 03:59:32;;;;;;;33.00;20.67;;;;;;;-2.91;83.02;99198.25;5010438;28;20581;-73
2024/01/20 04:01:58;;;;;;;27.50;19.75;;;;;;;-2.88;82.57;99210.47;5011101;28;20317;-73
2024/01/20 04:04:26;;;;;;;25.45;19.48;;;;;;;-2.97;83.10;99203.06;5004696;28;20294;-73
2024/01/20 04:06:54;;;;;;;25.10;18.55;;;;;;;-2.98;82.73;99199.56;5011681;28;20198;-73
2024/01/20 04:09:20;;;;;;;25.80;20.63;;;;;;;-2.88;82.99;99208.66;5010883;28;20653;-73
2024/01/20 04:11:47;;;;;;;25.67;18.55;;;;;;;-2.93;82.68;99205.44;5011795;28;20218;-73
2024/01/20 04:14:13;;;;;;;26.90;20.90;;;;;;;-2.78;82.94;99215.13;5011076;28;20202;-72
2024/01/20 04:16:40;;;;;;;26.55;22.02;;;;;;;-2.84;82.42;99210.19;5008322;28;20234;-73
2024/01/20 04:19:06;;;;;;;27.42;20.00;;;;;;;-2.88;83.03;99213.09;5009262;28;20555;-73
2024/01/20 04:21:33;;;;;;;29.80;20.50;;;;;;;-2.77;82.60;99206.25;5007444;28;20203;-73
2024/01/20 04:24:01;;;;;;;27.10;19.35;;;;;;;-2.64;82.39;99213.47;5012224;28;20303;-73
2024/01/20 04:26:27;;;;;;;28.77;21.30;;;;;;;-2.71;82.53;99215.63;5013257;28;20299;-73
2024/01/20 04:28:54;;;;;;;26.85;19.73;;;;;;;-2.46;82.24;99207.06;5011621;28;20211;-73
2024/01/20 04:31:20;;;;;;;27.58;20.63;;;;;;;-2.52;81.99;99205.63;5013275;28;20222;-73
2024/01/20 04:33:47;;;;;;;26.10;20.23;;;;;;;-2.55;81.76;99212.91;5007913;28;20218;-72
2024/01/20 04:36:13;;;;;;;25.45;19.35;;;;;;;-2.65;81.97;99217.06;5006940;28;20618;-73
2024/01/20 04:38:40;;;;;;;26.80;21.83;;;;;;;-2.51;81.50;99211.78;5007792;28;20203;-73
2024/01/20 04:41:08;;;;;;;28.42;20.17;;;;;;;-2.60;82.27;99221.16;5011760;28;20206;-73
2024/01/20 04:43:35;;;;;;;25.90;21.80;;;;;;;-2.45;81.95;99225.53;5010570;28;20210;-73
2024/01/20 04:46:01;;;;;;;26.30;20.67;;;;;;;-2.55;82.02;99228.81;5009718;28;20199;-73
2024/01/20 04:48:28;;;;;;;27.38;20.10;;;;;;;-2.61;81.08;99224.75;5003520;28;20206;-73
2024/01/20 04:50:55;;;;;;;28.08;20.48;;;;;;;-2.69;81.61;99228.78;5012463;28;20747;-72
2024/01/20 04:53:21;;;;;;;26.85;20.20;;;;;;;-2.85;81.76;99229.66;5011447;28;20202;-73
2024/01/20 04:55:48;;;;;;;26.75;20.52;;;;;;;-2.85;81.88;99229.66;5007148;28;20222;-73
2024/01/20 04:58:16;;;;;;;28.00;19.65;;;;;;;-3.00;82.09;99235.03;5018662;28;20303;-73
2024/01/20 05:00:44;;;;;;;25.38;19.50;;;;;;;-3.00;82.26;99227.06;5009332;28;20206;-73
2024/01/20 05:03:11;;;;;;;25.90;20.02;;;;;;;-3.09;82.43;99231.94;5002995;28;20218;-73
2024/01/20 05:05:39;;;;;;;29.15;20.35;;;;;;;-3.16;82.90;99227.94;5009352;28;20530;-73
2024/01/20 05:08:06;;;;;;;27.77;21.65;;;;;;;-3.13;82.60;99224.25;5010643;28;20206;-73
2024/01/20 05:10:33;;;;;;;27.02;21.15;;;;;;;-3.28;83.19;99226.00;5009983;28;20210;-73
2024/01/20 05:12:59;;;;;;;32.15;22.35;;;;;;;-3.14;83.54;99227.84;5007419;28;20190;-73
2024/01/20 05:15:27;;;;;;;30.27;21.05;;;;;;;-3.14;82.84;99233.16;5010343;28;20657;-73
2024/01/20 05:17:54;;;;;;;27.73;21.58;;;;;;;-3.04;83.23;99239.63;5007662;28;20224;-73
2024/01/20 05:20:20;;;;;;;28.00;21.80;;;;;;;-2.85;82.45;99242.06;5011137;28;20207;-73
2024/01/20 05:22:47;;;;;;;26.73;20.35;;;;;;;-2.93;81.98;99241.69;5022933;28;20210;-73
2024/01/20 05:25:14;;;;;;;29.52;21.30;;;;;;;-3.21;82.76;99234.44;5010986;28;20208;-73
2024/01/20 05:27:40;;;;;;;26.42;19.90;;;;;;;-3.14;83.16;99241.94;5010094;28;20214;-73
2024/01/20 05:30:08;;;;;;;30.23;21.88;;;;;;;-3.14;83.35;99238.44;5019161;28;20249;-73
2024/01/20 05:32:36;;;;;;;31.45;22.30;;;;;;;-3.01;83.49;99239.47;5009821;28;20297;-73
2024/01/20 05:35:03;;;;;;;34.47;22.38;;;;;;;-2.98;83.16;99244.59;5006204;28;20252;-72
2024/01/20 05:37:29;;;;;;;33.28;23.35;;;;;;;-3.23;83.92;99241.59;5011336;28;20215;-73
2024/01/20 05:39:56;;;;;;;33.15;23.48;;;;;;;-3.22;84.00;99259.19;4998497;28;20809;-72
2024/01/20 05:42:22;;;;;;;28.17;21.73;;;;;;;-3.32;84.20;99255.38;5008931;28;20214;-73
2024/01/20 05:44:49;;;;;;;30.42;23.02;;;;;;;-3.36;84.18;99269.69;5008821;28;20226;-73
2024/01/20 05:47:15;;;;;;;29.67;23.15;;;;;;;-3.14;83.69;99268.41;5009382;28;20286;-73
2024/01/20 05:49:43;;;;;;;36.63;23.13;;;;;;;-3.02;83.42;99268.66;5009287;28;20944;-73
2024/01/20 05:52:10;;;;;;;28.50;22.25;;;;;;;-2.98;83.04;99265.75;5009725;28;20289;-73
2024/01/20 05:54:36;;;;;;;33.38;23.35;;;;;;;-3.08;83.68;99277.81;5009210;28;20561;-73
2024/01/20 05:57:03;;;;;;;32.38;22.83;;;;;;;-3.29;84.04;99256.06;5010697;28;20230;-72
2024/01/20 05:59:30;;;;;;;37.17;24.85;;;;;;;-3.06;83.61;99276.78;5007663;28;20207;-73
2024/01/20 06:01:56;;;;;;;33.38;23.90;;;;;;;-3.13;83.27;99271.91;5011442;28;20213;-73
2024/01/20 06:04:23;;;;;;;33.13;23.70;;;;;;;-3.17;83.78;99271.22;5008819;28;20205;-72
2024/01/20 06:06:51;;;;;;;33.58;24.85;;;;;;;-3.40;84.47;99275.16;5008899;28;20614;-73
2024/01/20 06:09:18;;;;;;;31.88;23.33;;;;;;;-3.24;84.51;99274.28;5024725;28;20211;-72
2024/01/20 06:11:44;;;;;;;33.90;23.10;;;;;;;-3.24;84.60;99279.59;5010317;28;20290;-73
2024/01/20 06:14:11;;;;;;;33.78;24.30;;;;;;;-3.34;84.72;99273.13;5008512;28;20203;-73
2024/01/20 06:16:38;;;;;;;33.25;23.45;;;;;;;-3.40;84.33;99264.56;5007819;28;20227;-73
2024/01/20 06:19:05;;;;;;;33.15;24.08;;;;;;;-3.59;84.78;99277.13;5006301;28;20194;-73
2024/01/20 06:21:32;;;;;;;34.08;24.20;;;;;;;-3.58;85.25;99286.75;5009850;28;20198;-73
2024/01/20 06:24:00;;;;;;;34.55;24.90;;;;;;;-3.40;85.40;99288.38;5004364;28;20515;-73
2024/01/20 06:26:26;;;;;;;34.33;25.55;;;;;;;-3.42;85.10;99302.63;5001333;28;20536;-73
2024/01/20 06:28:53;;;;;;;38.22;27.02;;;;;;;-3.41;85.54;99304.34;5009658;28;20213;-73
2024/01/20 06:31:23;;;;;;;36.95;27.30;;;;;;;-3.36;85.18;99312.91;5011208;28;20206;-74
2024/01/20 06:33:50;;;;;;;35.30;25.80;;;;;;;-3.22;84.39;99314.75;5008445;28;20604;-73
2024/01/20 06:36:17;;;;;;;36.63;27.00;;;;;;;-3.29;84.79;99308.13;5008215;28;20206;-73
2024/01/20 06:38:43;;;;;;;35.83;26.65;;;;;;;-3.44;85.32;99309.81;5009952;28;20293;-73
2024/01/20 06:41:11;;;;;;;36.47;25.55;;;;;;;-3.41;85.34;99322.88;5006835;28;20722;-73
2024/01/20 06:43:37;;;;;;;40.20;26.80;;;;;;;-3.74;85.80;99318.47;5009431;28;20209;-73
2024/01/20 06:46:04;;;;;;;39.53;30.17;;;;;;;-3.93;86.96;99323.00;5010651;28;20208;-73
2024/01/20 06:48:32;;;;;;;40.95;30.65;;;;;;;-3.85;87.26;99327.88;5010532;28;20215;-73
2024/01/20 06:50:59;;;;;;;46.28;30.45;;;;;;;-3.64;86.56;99317.97;5015325;28;20210;-73
2024/01/20 06:53:26;;;;;;;43.40;29.33;;;;;;;-3.83;86.87;99318.06;5007285;28;20560;-73
2024/01/20 06:55:53;;;;;;;42.63;31.08;;;;;;;-3.65;86.89;99316.25;5008633;28;20205;-73
2024/01/20 06:58:21;;;;;;;35.75;25.00;;;;;;;-3.83;86.43;99318.06;5008686;28;20233;-73
2024/01/20 07:00:47;;;;;;;44.22;28.00;;;;;;;-3.90;86.77;99328.16;5007061;28;20195;-72
2024/01/20 07:03:14;;;;;;;41.13;27.55;;;;;;;-4.08;87.37;99339.66;4991149;28;20264;-72
2024/01/20 07:05:41;;;;;;;40.65;28.92;;;;;;;-3.97;88.12;99344.41;5009113;28;20206;-73
2024/01/20 07:08:08;;;;;;;42.30;30.38;;;;;;;-3.84;87.24;99350.75;4990396;28;20217;-73
2024/01/20 07:10:35;;;;;;;41.10;30.35;;;;;;;-4.00;87.67;99357.78;5008855;28;20213;-73
2024/01/20 07:13:01;;;;;;;40.53;28.58;;;;;;;-3.92;87.56;99358.25;4993381;28;20221;-72
2024/01/20 07:15:29;;;;;;;43.97;29.00;;;;;;;-3.98;87.76;99355.91;5007242;28;20276;-73
2024/01/20 07:17:56;;;;;;;42.35;30.33;;;;;;;-4.02;87.37;99357.00;5008437;28;20222;-73
2024/01/20 07:20:23;;;;;;;39.10;26.58;;;;;;;-3.83;87.40;99357.75;5005464;28;20202;-73
2024/01/20 07:22:50;;;;;;;40.45;29.52;;;;;;;-3.85;87.01;99351.69;5003879;28;20210;-70
2024/01/20 07:25:17;;;;;;;44.50;31.00;;;;;;;-3.81;87.10;99358.50;5006270;28;20202;-71
2024/01/20 07:27:44;;;;;;;40.00;29.50;;;;;;;-4.08;87.56;99366.09;5008861;28;20238;-71
2024/01/20 07:30:11;;;;;;;40.90;30.27;;;;;;;-4.29;88.11;99373.31;5008864;28;20230;-81
2024/01/20 07:32:40;;;;;;;43.15;30.17;;;;;;;-4.28;88.57;99372.38;5000743;28;20205;-72
2024/01/20 07:35:08;;;;;;;42.22;30.25;;;;;;;-4.22;88.15;99374.69;5008767;28;20205;-72
2024/01/20 07:37:36;;;;;;;43.35;28.70;;;;;;;-3.96;87.70;99375.19;5012937;28;20237;-72
2024/01/20 07:40:04;;;;;;;43.25;29.02;;;;;;;-4.18;87.81;99375.41;5012085;28;20214;-73
2024/01/20 07:42:32;;;;;;;41.95;27.48;;;;;;;-4.17;87.81;99377.97;5004313;28;20203;-73
2024/01/20 07:44:59;;;;;;;44.10;29.40;;;;;;;-4.23;88.08;99382.72;5013150;28;20214;-71
2024/01/20 07:47:25;;;;;;;41.33;29.50;;;;;;;-4.37;88.38;99386.06;5011039;28;20213;-73
2024/01/20 07:49:53;;;;;;;41.08;29.77;;;;;;;-4.34;88.72;99377.97;5014115;28;20237;-73
2024/01/20 07:52:19;;;;;;;42.72;29.65;;;;;;;-4.21;88.27;99391.41;5026968;28;20574;-70
2024/01/20 07:54:46;;;;;;;47.55;30.42;;;;;;;-4.34;88.48;99396.47;5011927;28;20199;-72
2024/01/20 07:57:13;;;;;;;44.40;31.15;;;;;;;-4.29;88.81;99394.47;5011589;28;20230;-71
2024/01/20 07:59:39;;;;;;;46.30;31.40;;;;;;;-4.36;89.00;99387.75;4991960;28;20211;-71
2024/01/20 08:02:06;;;;;;;40.45;25.52;;;;;;;-4.36;88.97;99398.31;5011099;28;20205;-71
2024/01/20 08:04:33;;;;;;;45.03;31.17;;;;;;;-4.16;88.65;99384.13;5013326;28;20202;-71
2024/01/20 08:07:01;;;;;;;41.63;30.63;;;;;;;-4.26;88.15;99399.59;5013834;28;20210;-72
2024/01/20 08:09:28;;;;;;;43.75;31.05;;;;;;;-4.40;88.16;99389.69;5013795;28;20201;-72
2024/01/20 08:11:54;;;;;;;40.97;29.77;;;;;;;-4.25;88.47;99401.31;5012765;28;20202;-71
2024/01/20 08:14:21;;;;;;;39.25;30.10;;;;;;;-4.16;87.84;99390.25;5012386;28;20206;-71
2024/01/20 08:16:47;;;;;;;41.33;28.23;;;;;;;-4.06;87.59;99395.94;5012515;28;20677;-71
2024/01/20 08:19:14;;;;;;;41.28;27.17;;;;;;;-4.01;87.38;99404.50;5001866;28;20286;-71
2024/01/20 08:21:40;;;;;;;43.45;30.13;;;;;;;-4.03;87.01;99401.06;5004794;28;20206;-71
2024/01/20 08:24:08;;;;;;;43.63;28.42;;;;;;;-4.28;87.42;99411.16;5011728;28;20202;-72
2024/01/20 08:26:35;;;;;;;43.00;28.50;;;;;;;-4.47;88.10;99404.13;5017811;28;20213;-72
2024/01/20 08:29:01;;;;;;;46.65;31.42;;;;;;;-4.62;88.67;99419.88;5012250;28;20207;-72
2024/01/20 08:31:28;;;;;;;39.28;28.15;;;;;;;-4.29;89.58;99412.97;5012980;28;20729;-71
2024/01/20 08:33:55;;;;;;;43.97;30.60;;;;;;;-4.25;87.74;99417.16;5008098;28;20277;-72
2024/01/20 08:36:21;;;;;;;44.75;30.05;;;;;;;-4.55;88.33;99418.66;5011770;28;20209;-71
2024/01/20 08:38:48;;;;;;;40.75;27.52;;;;;;;-4.53;88.60;99416.78;5005922;28;20222;-72
2024/01/20 08:41:17;;;;;;;44.10;30.80;;;;;;;-4.56;89.03;99423.09;5008557;28;20203;-75
2024/01/20 08:43:44;;;;;;;45.03;30.77;;;;;;;-4.37;88.23;99444.16;4999369;28;20210;-73
2024/01/20 08:46:11;;;;;;;45.67;30.70;;;;;;;-4.34;88.22;99437.88;5008502;28;20203;-72
2024/01/20 08:48:38;;;;;;;43.55;27.95;;;;;;;-4.26;87.54;99449.81;5010392;28;20210;-73
2024/01/20 08:51:05;;;;;;;37.40;25.15;;;;;;;-4.21;87.50;99449.53;5009299;28;20276;-73
2024/01/20 08:53:32;;;;;;;35.97;27.33;;;;;;;-4.29;87.15;99455.22;5009134;28;20206;-73
2024/01/20 08:55:59;;;;;;;33.72;26.20;;;;;;;-4.14;86.80;99448.31;5011725;28;20214;-73
2024/01/20 08:58:27;;;;;;;38.58;27.00;;;;;;;-4.09;86.73;99462.16;5010560;28;20253;-81
2024/01/20 09:00:56;;;;;;;34.55;26.13;;;;;;;-4.04;85.66;99454.88;5009832;28;20257;-81
2024/01/20 09:03:23;;;;;;;38.83;27.77;;;;;;;-3.82;85.60;99457.28;5009093;28;20569;-80
2024/01/20 09:05:49;;;;;;;33.75;24.83;;;;;;;-3.79;85.07;99462.44;4991491;28;20285;-75
2024/01/20 09:08:16;;;;;;;36.05;23.25;;;;;;;-3.79;84.83;99459.78;5008814;28;20337;-75
2024/01/20 09:10:42;;;;;;;35.45;25.40;;;;;;;-3.77;84.92;99463.22;5003580;28;20285;-75
2024/01/20 09:13:10;;;;;;;34.83;26.75;;;;;;;-3.79;84.73;99465.06;5017101;28;20227;-77
2024/01/20 09:15:38;;;;;;;35.75;24.67;;;;;;;-4.02;84.66;99470.66;5000878;28;20207;-76
2024/01/20 09:18:05;;;;;;;33.50;24.75;;;;;;;-4.13;84.97;99453.53;4985130;28;20242;-78
2024/01/20 09:20:31;;;;;;;35.15;26.83;;;;;;;-4.13;85.78;99471.19;5007908;28;20237;-76
2024/01/20 09:22:58;;;;;;;39.38;26.85;;;;;;;-4.15;85.49;99470.41;5001427;28;20635;-76
2024/01/20 09:25:24;;;;;;;39.33;26.65;;;;;;;-4.25;85.65;99464.72;5003469;28;20648;-77
2024/01/20 09:27:51;;;;;;;37.13;27.23;;;;;;;-4.12;86.48;99465.81;5018314;28;20206;-77
2024/01/20 09:30:18;;;;;;;37.83;28.23;;;;;;;-4.08;86.05;99469.16;5004826;28;20199;-77
2024/01/20 09:32:46;;;;;;;38.30;28.13;;;;;;;-4.17;85.76;99473.09;5002654;28;20290;-75
2024/01/20 09:35:14;;;;;;;36.88;25.60;;;;;;;-4.19;85.72;99480.25;5003542;28;21499;-76
2024/01/20 09:37:40;;;;;;;40.22;27.73;;;;;;;-4.15;86.08;99476.53;5008180;28;20214;-77
2024/01/20 09:40:08;;;;;;;43.65;29.60;;;;;;;-4.49;87.10;99485.22;5023968;28;20297;-75
2024/01/20 09:42:35;;;;;;;43.17;29.65;;;;;;;-4.35;87.80;99486.38;5008576;28;20225;-76
2024/01/20 09:45:02;;;;;;;41.88;28.27;;;;;;;-4.23;87.25;99486.66;5008888;28;20693;-76
2024/01/20 09:47:29;;;;;;;42.72;30.63;;;;;;;-4.11;87.12;99488.69;5021575;28;20214;-75
2024/01/20 09:49:56;;;;;;;42.15;29.83;;;;;;;-3.98;86.79;99504.81;5023086;28;20285;-76
2024/01/20 09:52:27;;;;;;;40.83;28.20;;;;;;;-3.82;85.91;99507.53;5031159;28;20213;-76
2024/01/20 09:55:02;;;;;;;43.17;31.73;;;;;;;-4.02;85.33;99512.94;5010181;28;20199;-75
2024/01/20 09:57:29;;;;;;;41.63;30.33;;;;;;;-4.09;86.28;99515.88;5008767;28;20205;-75
2024/01/20 09:59:57;;;;;;;42.03;29.17;;;;;;;-3.79;85.31;99520.59;5010514;28;20281;-76
2024/01/20 10:02:25;;;;;;;41.30;30.98;;;;;;;-3.94;85.72;99516.94;5026363;28;20237;-76
2024/01/20 10:04:52;;;;;;;42.88;28.05;;;;;;;-4.30;86.85;99509.00;5007868;28;20292;-76
2024/01/20 10:07:28;;;;;;;42.83;30.40;;;;;;;-3.91;86.50;99494.78;5008228;28;20576;-76
2024/01/20 10:09:55;;;;;;;42.90;30.48;;;;;;;-3.91;85.87;99502.72;5009669;28;20660;-76
2024/01/20 10:12:23;;;;;;;42.10;30.30;;;;;;;-4.00;85.66;99503.16;5008584;28;20298;-77
2024/01/20 10:14:50;;;;;;;40.05;25.80;;;;;;;-4.04;85.84;99504.25;5003215;28;20210;-76
2024/01/20 10:17:16;;;;;;;42.13;30.38;;;;;;;-4.20;86.39;99510.25;5005858;28;20204;-75
2024/01/20 10:19:43;;;;;;;43.25;31.33;;;;;;;-3.91;86.41;99506.22;5024714;28;20309;-75
2024/01/20 10:22:10;;;;;;;37.92;27.02;;;;;;;-3.76;85.76;99504.59;5009035;28;20205;-75
2024/01/20 10:24:47;;;;;;;42.20;29.65;;;;;;;-3.58;84.75;99513.41;5006222;28;20206;-76
2024/01/20 10:27:16;;;;;;;42.35;28.85;;;;;;;-3.57;84.78;99515.13;5008968;28;20225;-75
2024/01/20 10:29:43;;;;;;;41.03;27.38;;;;;;;-3.44;83.81;99509.09;5023747;28;20210;-76
2024/01/20 10:32:09;;;;;;;44.38;30.42;;;;;;;-3.72;84.63;99501.72;5001268;28;20207;-76
2024/01/20 10:34:37;;;;;;;41.55;29.67;;;;;;;-3.65;84.30;99509.34;4999454;28;20202;-75
2024/01/20 10:37:08;;;;;;;42.03;28.70;;;;;;;-3.60;84.13;99492.31;5007511;28;20302;-75
2024/01/20 10:39:39;;;;;;;39.92;28.90;;;;;;;-3.33;83.86;99503.28;5003085;28;20337;-76
2024/01/20 10:42:09;;;;;;;37.55;28.08;;;;;;;-2.82;82.24;99499.66;5001750;28;20207;-74
2024/01/20 10:44:38;;;;;;;38.10;25.60;;;;;;;-2.60;79.90;99509.13;5005871;28;20206;-74
2024/01/20 10:47:11;;;;;;;36.30;25.48;;;;;;;-2.05;78.04;99498.94;5007515;28;20297;-74
2024/01/20 10:49:39;;;;;;;31.83;24.38;;;;;;;-1.90;76.12;99492.72;5010307;28;20206;-74
2024/01/20 10:52:07;;;;;;;34.72;22.73;;;;;;;-1.75;76.25;99498.97;5008061;28;20306;-74
2024/01/20 10:54:34;;;;;;;33.88;23.42;;;;;;;-1.16;74.64;99486.59;4996220;28;20218;-75
2024/01/20 10:57:00;;;;;;;29.33;22.27;;;;;;;-0.76;72.32;99485.00;5007578;28;20214;-75
2024/01/20 10:59:29;;;;;;;30.98;25.45;;;;;;;-0.44;70.79;99477.66;5000249;28;20222;-74
2024/01/20 11:01:56;;;;;;;28.10;23.55;;;;;;;0.05;70.20;99471.81;5004438;28;20202;-72
2024/01/20 11:04:23;;;;;;;28.48;23.42;;;;;;;0.57;67.31;99477.19;5007119;28;20205;-72
2024/01/20 11:06:50;;;;;;;30.38;23.88;;;;;;;-0.26;69.10;99468.50;5002188;28;20211;-72
2024/01/20 11:09:21;;;;;;;31.35;24.95;;;;;;;0.35;69.10;99459.13;5005427;28;20209;-72
2024/01/20 11:11:59;;;;;;;34.08;24.85;;;;;;;1.06;65.50;99456.00;5007725;28;20190;-71
2024/01/20 11:14:29;;;;;;;29.10;24.73;;;;;;;0.90;65.39;99461.56;5003850;28;20198;-72
2024/01/20 11:16:56;;;;;;;25.60;22.13;;;;;;;1.51;64.09;99456.38;5021754;28;20211;-72